Swift 24 — SWIFT24 — position and weather

sailwx.info

Track history (hours):
 
Tides and Currents Weather Stations Pressure Air Temp Water Temp Dewpoint Dewpoint Depression Visibility Wind Speed Wind Dir Waves Ship Positions

Swift 24

Last reported at 2018-Jan-19 17:41 UTC. Time now 2018-Jul-19 13:35 UTC.
Position N 47°41' W 122°24'.
Warning: this ship's position is months out of date.

Type: Sailing vessel. MMSI: 338236808.

Date/timePositionNaut miles runAvg speedWind from/ knotsBaromVisibWave heightAir tempDewpointWater temp
2018-Jan-19 17:41N 47°41' W 122°24'0 0.0
2018-Jan-19 17:24N 47°41' W 122°24'3 3.9
2018-Jan-19 16:41N 47°44' W 122°25'0 1.5
2018-Jan-19 16:29N 47°43' W 122°25'0 0.9
2018-Jan-19 15:58N 47°43' W 122°25'2 4.0
2018-Jan-19 15:25N 47°41' W 122°24'0 0.0
2018-Jan-18 21:24N 47°41' W 122°24'0 0.0
2018-Jan-18 20:57N 47°41' W 122°24'0 0.1
2018-Jan-18 20:27N 47°41' W 122°24'5 8.8
2018-Jan-18 19:55N 47°45' W 122°25'0 0.5
2018-Jan-18 19:30N 47°46' W 122°25'1 1.4
2018-Jan-18 19:00N 47°45' W 122°25'1 1.8
2018-Jan-18 18:28N 47°44' W 122°25'2 2.6
2018-Jan-18 17:51N 47°45' W 122°25'1 1.7
2018-Jan-18 17:30N 47°45' W 122°25'1 1.6
2018-Jan-18 17:00N 47°44' W 122°25'1 2.1
2018-Jan-18 16:22N 47°43' W 122°25'  
Track history (hours):
 
Tides and Currents Weather Stations Pressure Air Temp Water Temp Dewpoint Dewpoint Depression Visibility Wind Speed Wind Dir Waves Ship Positions

Swift 24

Last reported at 2018-Jan-19 17:41 UTC. Time now 2018-Jul-19 13:35 UTC.
Position N 47°41' W 122°24'.
Warning: this ship's position is months out of date.

Type: Sailing vessel. MMSI: 338236808.

Date/timePositionNaut miles runAvg speedWind from/ knotsBaromVisibWave heightAir tempDewpointWater temp
2018-Jan-19 17:41N 47°41' W 122°24'0 0.0
2018-Jan-19 17:24N 47°41' W 122°24'3 3.9
2018-Jan-19 16:41N 47°44' W 122°25'0 1.5
2018-Jan-19 16:29N 47°43' W 122°25'0 0.9
2018-Jan-19 15:58N 47°43' W 122°25'2 4.0
2018-Jan-19 15:25N 47°41' W 122°24'0 0.0
2018-Jan-18 21:24N 47°41' W 122°24'0 0.0
2018-Jan-18 20:57N 47°41' W 122°24'0 0.1
2018-Jan-18 20:27N 47°41' W 122°24'5 8.8
2018-Jan-18 19:55N 47°45' W 122°25'0 0.5
2018-Jan-18 19:30N 47°46' W 122°25'1 1.4
2018-Jan-18 19:00N 47°45' W 122°25'1 1.8
2018-Jan-18 18:28N 47°44' W 122°25'2 2.6
2018-Jan-18 17:51N 47°45' W 122°25'1 1.7
2018-Jan-18 17:30N 47°45' W 122°25'1 1.6
2018-Jan-18 17:00N 47°44' W 122°25'1 2.1
2018-Jan-18 16:22N 47°43' W 122°25'  

Dump ship's entire track history